Terminal Aerodrome Forecast
Issued by NWS Wilmington, OH

Current Version | Previous Version | Graphics & Text | Print | Product List | Glossary On
Versions: 1 2 3 4 5 6 7 8 9 10 11 12 13 14 15 16 17 18 19 20 21 22 23 24 25 26 27 28 29 30 31
000
FTUS41 KILN 272204 AAA
TAFCVG
TAF AMD
KCVG 272204Z 2722/2824 07003KT P6SM VCSH SCT025 BKN040
     FM280300 07003KT 5SM BR SCT040 BKN100
     FM280900 VRB03KT 1SM BR FEW020 SCT250
     FM281300 VRB03KT P6SM FEW020 SCT250
     FM281900 07004KT P6SM FEW025 BKN040=

USA.gov is the U.S. government's official web portal to all federal, state and local government web resources and services.